Time;durP1;ratioP1;P1;durP2;ratioP2;P2;SDS_P1;SDS_P2;PMS_P1;PMS_P2;Temp;Humidity;BMP_temperature;BMP_pressure;BME280_temperature;BME280_humidity;BME280_pressure;Samples;Min_cycle;Max_cycle;Signal;HPM_P1;HPM_P2
2021/12/26 00:02:20;;;;;;;5.20;2.88;;;4.00;99.90;;;;;;5015603;28;20133;-92
2021/12/26 00:04:48;;;;;;;7.30;3.47;;;4.00;99.90;;;;;;5016668;28;20447;-92
2021/12/26 00:07:15;;;;;;;4.75;2.28;;;4.00;99.90;;;;;;5016610;28;20061;-92
2021/12/26 00:09:42;;;;;;;5.72;2.85;;;4.70;99.90;;;;;;5016337;28;20081;-92
2021/12/26 00:12:11;;;;;;;4.90;3.30;;;4.10;99.90;;;;;;5016417;28;20050;-92
2021/12/26 00:14:41;;;;;;;5.27;3.33;;;4.00;99.90;;;;;;5016574;28;20480;-92
2021/12/26 00:17:08;;;;;;;7.95;5.40;;;4.20;99.90;;;;;;5016327;28;20049;-92
2021/12/26 00:19:35;;;;;;;9.77;4.78;;;4.10;99.90;;;;;;5008381;28;20057;-92
2021/12/26 00:22:05;;;;;;;7.13;3.88;;;4.00;99.90;;;;;;5016789;28;20054;-92
2021/12/26 00:24:32;;;;;;;;;;;4.40;99.90;;;;;;5016711;28;20477;-92
2021/12/26 00:27:01;;;;;;;5.63;3.38;;;5.20;99.90;;;;;;5016304;28;19922;-92
2021/12/26 00:29:29;;;;;;;8.60;4.55;;;4.20;99.90;;;;;;5015991;28;20076;-91
2021/12/26 00:31:56;;;;;;;9.98;4.28;;;4.40;99.90;;;;;;5016363;28;20073;-92
2021/12/26 00:34:23;;;;;;;7.43;3.80;;;4.50;99.90;;;;;;5028279;28;20049;-92
2021/12/26 00:36:50;;;;;;;8.77;4.72;;;4.40;99.90;;;;;;5035809;28;20050;-92
2021/12/26 00:39:19;;;;;;;6.32;4.30;;;4.20;99.90;;;;;;5035817;28;20149;-92
2021/12/26 00:41:46;;;;;;;5.35;3.67;;;4.20;99.90;;;;;;5035300;28;20049;-91
2021/12/26 00:44:13;;;;;;;5.32;3.65;;;4.60;99.90;;;;;;5035643;28;20056;-91
2021/12/26 00:46:40;;;;;;;5.00;2.53;;;4.40;99.90;;;;;;5035677;28;20050;-91
2021/12/26 00:49:08;;;;;;;5.97;3.78;;;4.80;99.90;;;;;;5035944;28;20061;-91
2021/12/26 00:51:35;;;;;;;5.53;3.42;;;4.70;99.90;;;;;;5035310;28;20049;-91
2021/12/26 00:54:02;;;;;;;6.70;2.72;;;4.60;99.90;;;;;;5034998;28;20523;-92
2021/12/26 00:56:33;;;;;;;5.45;3.38;;;4.40;99.90;;;;;;5035097;28;20061;-92
2021/12/26 00:59:00;;;;;;;4.15;2.90;;;5.00;99.90;;;;;;5035411;28;20069;-92
2021/12/26 01:01:27;;;;;;;4.68;2.70;;;4.40;99.90;;;;;;5035900;28;20053;-91
2021/12/26 01:03:55;;;;;;;4.43;2.70;;;4.70;99.90;;;;;;5035432;28;20049;-90
2021/12/26 01:06:23;;;;;;;3.42;2.08;;;4.30;99.90;;;;;;5034978;28;20049;-91
2021/12/26 01:08:52;;;;;;;3.85;2.30;;;5.10;99.90;;;;;;5035766;28;20046;-91
2021/12/26 01:11:32;;;;;;;4.20;2.63;;;4.80;99.90;;;;;;5035361;28;20053;-91
2021/12/26 01:14:03;;;;;;;2.45;1.45;;;4.30;99.90;;;;;;5040424;28;20053;-92
2021/12/26 01:16:30;;;;;;;2.47;1.75;;;4.90;99.90;;;;;;5042050;28;20049;-92
2021/12/26 01:19:05;;;;;;;3.67;2.20;;;4.90;99.90;;;;;;5042211;28;20491;-92
2021/12/26 01:21:33;;;;;;;4.35;2.40;;;5.00;99.90;;;;;;5041260;28;20122;-91
2021/12/26 01:24:01;;;;;;;4.78;2.20;;;4.30;99.90;;;;;;5040679;28;20049;-91
2021/12/26 01:26:30;;;;;;;4.03;2.75;;;4.30;99.90;;;;;;5040514;28;20053;-92
2021/12/26 01:28:57;;;;;;;4.13;2.10;;;4.60;99.90;;;;;;5042162;28;20049;-92
2021/12/26 01:31:27;;;;;;;2.72;1.85;;;5.00;99.90;;;;;;5041705;28;20311;-92
2021/12/26 01:33:57;;;;;;;2.90;2.00;;;4.30;99.90;;;;;;5030142;28;20050;-91
2021/12/26 01:36:24;;;;;;;7.93;1.77;;;4.50;99.90;;;;;;5021810;28;20137;-92
2021/12/26 01:38:51;;;;;;;5.72;2.28;;;4.50;99.90;;;;;;5022291;28;20042;-91
2021/12/26 01:41:19;;;;;;;4.28;2.17;;;4.30;99.90;;;;;;5022246;28;20056;-91
2021/12/26 01:43:48;;;;;;;2.35;1.30;;;4.30;99.90;;;;;;5021919;28;20053;-92
2021/12/26 01:46:16;;;;;;;;;;;4.10;99.90;;;;;;5036359;28;20053;-92
2021/12/26 01:48:45;;;;;;;5.63;2.13;;;4.10;99.90;;;;;;5037583;28;19921;-91
2021/12/26 01:51:12;;;;;;;2.88;1.48;;;4.10;99.90;;;;;;5037357;28;20353;-91
2021/12/26 01:53:41;;;;;;;2.92;1.83;;;4.20;99.90;;;;;;5032297;28;20057;-92
2021/12/26 01:56:10;;;;;;;2.97;1.58;;;4.10;99.90;;;;;;5022639;28;20107;-92
2021/12/26 01:58:37;;;;;;;;;;;4.10;99.90;;;;;;5022631;28;20054;-92
2021/12/26 02:01:08;;;;;;;1.75;0.93;;;4.20;99.90;;;;;;5021667;28;19922;-91
2021/12/26 02:03:36;;;;;;;5.75;2.95;;;4.80;99.90;;;;;;5021713;28;20080;-92
2021/12/26 02:06:06;;;;;;;3.60;2.22;;;4.30;99.90;;;;;;5021333;28;20068;-92
2021/12/26 02:08:34;;;;;;;3.80;2.40;;;4.40;99.90;;;;;;5022124;28;20053;-91
2021/12/26 02:11:02;;;;;;;3.10;2.13;;;4.20;99.90;;;;;;5022155;28;20084;-91
2021/12/26 02:13:30;;;;;;;3.97;1.88;;;4.30;99.90;;;;;;5022543;28;20546;-91
2021/12/26 02:15:58;;;;;;;2.65;1.85;;;4.30;99.90;;;;;;5022048;28;20096;-91
2021/12/26 02:18:25;;;;;;;3.67;1.80;;;4.40;99.90;;;;;;5022290;28;20052;-91
2021/12/26 02:21:08;;;;;;;5.03;2.17;;;4.30;99.90;;;;;;5022094;28;20056;-91
2021/12/26 02:23:43;;;;;;;2.60;1.48;;;4.90;99.90;;;;;;5022123;28;20046;-91
2021/12/26 02:28:54;;;;;;;2.17;1.48;;;3.10;99.90;;;;;;5018653;28;20085;-91
2021/12/26 02:31:22;;;;;;;2.08;1.40;;;4.70;99.90;;;;;;5018726;28;20085;-91
2021/12/26 02:33:49;;;;;;;2.45;1.20;;;4.30;99.90;;;;;;5017984;28;20057;-91
2021/12/26 02:36:20;;;;;;;2.05;1.10;;;4.40;99.90;;;;;;5033641;28;20057;-91
2021/12/26 02:38:49;;;;;;;1.92;1.13;;;4.40;99.90;;;;;;5038966;28;20052;-91
2021/12/26 02:41:16;;;;;;;2.80;1.40;;;3.10;99.90;;;;;;5038194;28;20049;-91
2021/12/26 02:43:43;;;;;;;0.88;0.60;;;5.10;99.90;;;;;;5038291;28;20045;-92
2021/12/26 02:46:10;;;;;;;2.00;1.05;;;5.10;99.90;;;;;;5037537;28;20057;-91
2021/12/26 02:48:39;;;;;;;1.83;0.80;;;4.50;99.90;;;;;;5037616;28;20042;-91
2021/12/26 02:51:07;;;;;;;1.10;0.65;;;4.70;99.90;;;;;;5037509;28;20061;-91
2021/12/26 02:53:36;;;;;;;2.80;1.00;;;5.30;99.90;;;;;;5037533;28;20455;-91
2021/12/26 02:56:05;;;;;;;2.30;0.80;;;4.50;99.90;;;;;;5037558;28;20056;-91
2021/12/26 02:58:33;;;;;;;1.83;0.85;;;5.10;99.90;;;;;;5037743;28;20056;-91
2021/12/26 03:01:03;;;;;;;0.95;0.70;;;4.60;99.90;;;;;;5037880;28;20136;-91
2021/12/26 03:03:30;;;;;;;1.77;0.73;;;4.40;99.90;;;;;;5037207;28;20128;-91
2021/12/26 03:06:02;;;;;;;2.05;0.57;;;4.80;99.90;;;;;;5037471;28;20057;-91
2021/12/26 03:08:29;;;;;;;2.17;0.60;;;4.60;99.90;;;;;;5036962;28;20108;-91
2021/12/26 03:10:59;;;;;;;1.02;0.57;;;4.70;99.90;;;;;;5036874;28;20049;-92
2021/12/26 03:13:27;;;;;;;0.88;0.77;;;4.60;99.90;;;;;;5037332;28;20107;-90
2021/12/26 03:15:54;;;;;;;1.30;0.60;;;5.00;99.90;;;;;;5037837;28;20437;-92
2021/12/26 03:18:22;;;;;;;1.27;0.65;;;4.90;99.90;;;;;;5037857;28;20415;-92
2021/12/26 03:20:51;;;;;;;2.17;0.60;;;4.50;99.90;;;;;;5038172;28;20060;-92
2021/12/26 03:23:22;;;;;;;2.08;0.57;;;4.80;99.90;;;;;;5037764;28;20081;-91
2021/12/26 03:25:50;;;;;;;1.88;0.90;;;4.80;99.90;;;;;;5036821;28;20167;-92
2021/12/26 03:28:21;;;;;;;1.42;0.70;;;4.80;99.90;;;;;;5037021;28;20045;-91
2021/12/26 03:30:50;;;;;;;1.20;0.70;;;4.80;99.90;;;;;;5034146;28;20057;-92
2021/12/26 03:33:23;;;;;;;1.08;0.75;;;4.60;99.90;;;;;;5037548;28;20045;-92
2021/12/26 03:35:52;;;;;;;1.90;1.10;;;4.70;99.90;;;;;;5037547;28;20423;-92
2021/12/26 03:38:21;;;;;;;1.13;0.63;;;4.70;99.90;;;;;;5037729;28;20081;-92
2021/12/26 03:40:49;;;;;;;1.80;0.60;;;4.50;99.90;;;;;;5038001;28;20776;-93
2021/12/26 03:43:19;;;;;;;0.85;0.68;;;3.80;99.90;;;;;;5037224;28;20286;-92
2021/12/26 03:45:49;;;;;;;1.15;0.73;;;4.80;99.90;;;;;;5039536;28;20045;-93
2021/12/26 03:48:18;;;;;;;0.90;0.70;;;4.90;99.90;;;;;;5044954;28;20065;-93
2021/12/26 03:50:46;;;;;;;0.88;0.60;;;4.90;99.90;;;;;;5052794;28;20046;-92
2021/12/26 03:53:14;;;;;;;0.75;0.60;;;4.50;99.90;;;;;;5052911;28;20045;-92
2021/12/26 03:55:41;;;;;;;1.75;0.90;;;4.50;99.90;;;;;;5054407;28;20032;-93
2021/12/26 03:58:09;;;;;;;2.53;1.00;;;4.70;99.90;;;;;;5038605;28;20049;-91
2021/12/26 04:00:39;;;;;;;1.65;0.82;;;4.50;99.90;;;;;;5037880;28;20051;-92
2021/12/26 04:03:06;;;;;;;1.50;0.68;;;3.80;99.90;;;;;;5037529;28;20140;-92
2021/12/26 04:05:35;;;;;;;1.58;1.00;;;4.70;99.90;;;;;;5038064;28;20119;-93
2021/12/26 04:08:03;;;;;;;1.23;0.82;;;4.50;99.90;;;;;;5038082;28;20049;-93
2021/12/26 04:10:34;;;;;;;1.60;0.82;;;4.50;99.90;;;;;;5037333;28;20479;-92
2021/12/26 04:13:01;;;;;;;1.13;0.55;;;4.90;99.90;;;;;;5037263;28;20487;-92
2021/12/26 04:15:32;;;;;;;7.78;1.00;;;4.70;99.90;;;;;;5037515;28;20132;-93
2021/12/26 04:18:04;;;;;;;1.33;0.68;;;4.90;99.90;;;;;;5036798;28;20099;-93
2021/12/26 04:20:31;;;;;;;2.10;1.02;;;4.80;99.90;;;;;;5037202;28;20049;-92
2021/12/26 04:23:02;;;;;;;1.75;1.00;;;5.20;99.90;;;;;;5036544;28;20392;-93
2021/12/26 04:25:29;;;;;;;1.73;0.80;;;4.90;99.90;;;;;;5036759;28;20061;-92
2021/12/26 04:27:56;;;;;;;2.13;1.40;;;4.60;99.90;;;;;;5036533;28;20049;-93
2021/12/26 04:30:25;;;;;;;1.30;0.80;;;4.90;99.90;;;;;;5036925;28;20055;-92
2021/12/26 04:32:54;;;;;;;1.33;0.70;;;4.60;99.90;;;;;;5036362;28;20073;-93
2021/12/26 04:35:24;;;;;;;1.52;0.93;;;4.90;99.90;;;;;;5036368;28;20316;-91
2021/12/26 04:37:52;;;;;;;1.88;1.13;;;4.90;99.90;;;;;;5035913;28;20048;-92
2021/12/26 04:40:19;;;;;;;1.48;0.93;;;4.70;99.90;;;;;;5036583;28;20048;-92
2021/12/26 04:42:50;;;;;;;1.42;1.00;;;4.80;99.90;;;;;;5036442;28;20161;-92
2021/12/26 04:45:18;;;;;;;1.13;0.80;;;3.50;99.90;;;;;;5036113;28;20045;-94
2021/12/26 04:47:46;;;;;;;1.10;0.73;;;4.90;99.90;;;;;;5036168;28;20132;-93
2021/12/26 04:50:19;;;;;;;1.60;0.93;;;4.50;99.90;;;;;;5036599;28;20056;-92
2021/12/26 04:52:49;;;;;;;1.08;0.73;;;4.90;99.90;;;;;;5036397;28;20547;-93
2021/12/26 04:55:19;;;;;;;2.13;1.00;;;4.50;99.90;;;;;;5036609;28;20049;-92
2021/12/26 04:57:46;;;;;;;;;;;5.00;99.90;;;;;;5036623;28;20049;-93
2021/12/26 05:00:17;;;;;;;1.67;0.95;;;2.90;99.90;;;;;;5036573;28;19927;-93
2021/12/26 05:02:45;;;;;;;2.40;1.20;;;4.50;99.90;;;;;;5036108;28;20056;-92
2021/12/26 05:05:13;;;;;;;3.08;0.95;;;4.70;99.90;;;;;;5036471;28;20046;-92
2021/12/26 05:07:43;;;;;;;2.00;1.23;;;4.50;99.90;;;;;;5036456;28;20049;-93
2021/12/26 05:10:17;;;;;;;;;;;4.70;99.90;;;;;;5037412;28;20049;-93
2021/12/26 05:12:44;;;;;;;2.10;1.23;;;4.70;99.90;;;;;;5036165;28;19921;-93
2021/12/26 05:15:13;;;;;;;1.40;0.95;;;3.60;99.90;;;;;;5036462;28;20050;-93
2021/12/26 05:17:41;;;;;;;2.45;1.23;;;4.60;99.90;;;;;;5036697;28;20049;-93
2021/12/26 05:20:09;;;;;;;1.85;1.27;;;5.10;99.90;;;;;;5036189;28;20470;-92
2021/12/26 05:22:37;;;;;;;2.17;1.40;;;4.70;99.90;;;;;;5023794;28;20420;-92
2021/12/26 05:25:07;;;;;;;2.88;1.27;;;4.60;99.90;;;;;;5016168;28;20050;-92
2021/12/26 05:27:36;;;;;;;2.03;1.30;;;4.60;99.90;;;;;;5016840;28;20050;-93
2021/12/26 05:30:06;;;;;;;2.40;1.27;;;4.60;99.90;;;;;;5015425;28;20488;-92
2021/12/26 05:32:33;;;;;;;;;;;4.70;99.90;;;;;;5015638;28;20428;-93
2021/12/26 05:35:00;;;;;;;2.20;1.33;;;4.60;99.90;;;;;;5015745;28;19925;-93
2021/12/26 05:37:27;;;;;;;2.38;1.70;;;4.70;99.90;;;;;;5016572;28;20050;-92
2021/12/26 05:39:56;;;;;;;2.40;1.58;;;4.70;99.90;;;;;;5016622;28;20053;-92
2021/12/26 05:42:24;;;;;;;2.25;1.65;;;4.70;99.90;;;;;;5017132;28;20049;-93
2021/12/26 05:44:52;;;;;;;3.00;1.60;;;4.70;99.90;;;;;;5016676;28;20050;-92
2021/12/26 05:47:20;;;;;;;4.30;1.67;;;4.90;99.90;;;;;;5016197;28;20077;-92
2021/12/26 05:49:49;;;;;;;2.13;1.75;;;5.00;99.90;;;;;;5016401;28;20057;-93
2021/12/26 05:52:19;;;;;;;2.72;1.77;;;4.60;99.90;;;;;;5020546;28;20109;-92
2021/12/26 05:54:46;;;;;;;2.95;2.17;;;3.10;99.90;;;;;;5032020;28;20046;-92
2021/12/26 05:57:13;;;;;;;2.50;1.58;;;5.30;99.90;;;;;;5031115;28;20074;-91
2021/12/26 05:59:40;;;;;;;2.53;1.77;;;4.80;99.90;;;;;;5027230;28;20046;-91
2021/12/26 06:02:11;;;;;;;2.90;1.83;;;2.70;99.90;;;;;;5024167;28;20058;-91
2021/12/26 06:04:39;;;;;;;2.75;2.00;;;4.50;99.90;;;;;;5021084;28;20133;-92
2021/12/26 06:07:07;;;;;;;2.72;2.10;;;5.10;99.90;;;;;;5019992;28;20519;-92
2021/12/26 06:09:34;;;;;;;4.55;1.63;;;5.20;99.90;;;;;;5011393;28;20054;-92
2021/12/26 06:12:01;;;;;;;2.63;1.83;;;4.50;99.90;;;;;;5019737;28;20068;-92
2021/12/26 06:14:29;;;;;;;2.92;2.03;;;4.70;99.90;;;;;;5020195;28;20057;-92
2021/12/26 06:16:56;;;;;;;3.85;1.83;;;4.70;99.90;;;;;;5019909;28;20046;-92
2021/12/26 06:19:24;;;;;;;2.53;1.80;;;4.60;99.90;;;;;;5019253;28;20050;-92
2021/12/26 06:21:52;;;;;;;3.08;1.95;;;4.70;99.90;;;;;;5019131;28;20050;-92
2021/12/26 06:24:19;;;;;;;3.60;2.05;;;4.60;99.90;;;;;;5019553;28;20105;-92
2021/12/26 06:26:47;;;;;;;2.88;2.10;;;4.20;99.90;;;;;;5019116;28;20050;-92
2021/12/26 06:29:14;;;;;;;3.47;2.42;;;5.20;99.90;;;;;;5019358;28;20053;-92
2021/12/26 06:31:42;;;;;;;3.10;2.35;;;4.80;99.90;;;;;;5019065;28;20052;-92
2021/12/26 06:34:11;;;;;;;3.70;2.38;;;4.20;99.90;;;;;;5019521;28;20064;-92
2021/12/26 06:36:43;;;;;;;;;;;4.60;99.90;;;;;;5019988;28;20053;-93
2021/12/26 06:39:10;;;;;;;4.00;2.75;;;4.80;99.90;;;;;;5019530;28;19921;-93
2021/12/26 06:41:38;;;;;;;3.28;2.30;;;4.60;99.90;;;;;;5025626;28;20049;-93
2021/12/26 06:44:07;;;;;;;3.10;2.25;;;5.70;99.90;;;;;;5039254;28;20076;-93
2021/12/26 06:46:37;;;;;;;4.53;2.63;;;4.90;99.90;;;;;;5039222;28;20041;-93
2021/12/26 06:49:05;;;;;;;3.40;2.65;;;4.50;99.90;;;;;;5038877;28;20053;-92
2021/12/26 06:51:33;;;;;;;3.08;2.35;;;4.70;99.90;;;;;;5038411;28;20056;-92
2021/12/26 06:54:02;;;;;;;4.38;2.75;;;4.60;99.90;;;;;;5038931;28;20058;-92
2021/12/26 06:56:32;;;;;;;3.53;2.67;;;5.10;99.90;;;;;;5039023;28;20139;-92
2021/12/26 06:58:59;;;;;;;5.50;2.80;;;4.70;99.90;;;;;;5038933;28;20051;-93
2021/12/26 07:01:27;;;;;;;4.15;2.95;;;4.40;99.90;;;;;;5038662;28;20058;-92
2021/12/26 07:03:54;;;;;;;4.30;2.95;;;5.10;99.90;;;;;;5038329;28;20053;-93
2021/12/26 07:06:21;;;;;;;3.95;2.80;;;4.60;99.90;;;;;;5038421;28;20050;-93
2021/12/26 07:08:49;;;;;;;4.28;2.80;;;4.80;99.90;;;;;;5038718;28;20124;-92
2021/12/26 07:11:18;;;;;;;4.20;3.33;;;4.30;99.90;;;;;;5038693;28;20041;-92
2021/12/26 07:13:45;;;;;;;;;;;4.40;99.90;;;;;;5039305;28;20514;-92
2021/12/26 07:16:12;;;;;;;5.57;3.47;;;4.20;99.90;;;;;;5038353;28;19948;-93
2021/12/26 07:18:39;;;;;;;3.80;3.00;;;3.40;99.90;;;;;;5038439;28;20067;-92
2021/12/26 07:21:07;;;;;;;3.78;3.08;;;4.20;99.90;;;;;;5038314;28;20053;-92
2021/12/26 07:23:34;;;;;;;4.50;3.33;;;4.60;99.90;;;;;;5038305;28;20067;-91
2021/12/26 07:26:01;;;;;;;3.88;2.65;;;4.60;99.90;;;;;;5021901;28;20064;-92
2021/12/26 07:28:30;;;;;;;4.35;3.25;;;4.50;99.90;;;;;;5017886;28;20136;-92
2021/12/26 07:30:57;;;;;;;3.90;3.00;;;4.50;99.90;;;;;;5018482;28;20053;-92
2021/12/26 07:33:25;;;;;;;4.18;2.90;;;4.80;99.90;;;;;;5017942;28;20061;-91
2021/12/26 07:35:52;;;;;;;4.70;3.25;;;4.70;99.90;;;;;;5016892;28;20054;-91
2021/12/26 07:38:19;;;;;;;5.53;3.55;;;4.50;99.90;;;;;;5016700;28;20050;-92
2021/12/26 07:40:47;;;;;;;4.55;3.80;;;4.40;99.90;;;;;;5017548;28;20052;-92
2021/12/26 07:43:14;;;;;;;7.05;4.53;;;4.30;99.90;;;;;;5017836;28;20045;-92
2021/12/26 07:45:43;;;;;;;5.13;3.55;;;4.40;99.90;;;;;;5018044;28;20049;-92
2021/12/26 07:48:10;;;;;;;5.68;3.95;;;4.10;99.90;;;;;;5018273;28;20124;-92
2021/12/26 07:50:38;;;;;;;5.18;3.92;;;4.60;99.90;;;;;;5017861;28;20502;-92
2021/12/26 07:53:09;;;;;;;5.05;3.60;;;4.80;99.90;;;;;;5017276;28;20053;-91
2021/12/26 07:55:36;;;;;;;5.80;3.75;;;4.50;99.90;;;;;;5023728;28;20096;-92
2021/12/26 07:58:07;;;;;;;5.10;3.92;;;4.60;99.90;;;;;;5034003;28;20042;-91
2021/12/26 08:00:35;;;;;;;4.60;3.72;;;4.60;99.90;;;;;;5034094;28;20133;-91
2021/12/26 08:03:04;;;;;;;5.00;3.85;;;4.00;99.90;;;;;;5034728;28;20045;-92
2021/12/26 08:05:31;;;;;;;6.65;4.00;;;4.40;99.90;;;;;;5020492;28;20226;-92
2021/12/26 08:07:59;;;;;;;6.43;3.88;;;4.50;99.90;;;;;;5017712;28;20045;-92
2021/12/26 08:10:26;;;;;;;5.97;4.07;;;4.60;99.90;;;;;;5017550;28;20049;-93
2021/12/26 08:12:54;;;;;;;7.25;3.50;;;4.50;99.90;;;;;;5017587;28;20057;-91
2021/12/26 08:15:21;;;;;;;5.93;4.45;;;4.60;99.90;;;;;;5017536;28;20052;-92
2021/12/26 08:17:48;;;;;;;6.03;4.00;;;4.40;99.90;;;;;;5017062;28;20061;-92
2021/12/26 08:20:17;;;;;;;5.57;4.25;;;4.60;99.90;;;;;;5017491;28;20058;-92
2021/12/26 08:22:44;;;;;;;4.88;3.35;;;4.60;99.90;;;;;;5015855;28;20057;-93
2021/12/26 08:25:12;;;;;;;5.30;3.70;;;4.50;99.90;;;;;;5012442;28;20046;-92
2021/12/26 08:27:41;;;;;;;4.53;3.40;;;5.00;99.90;;;;;;5017275;28;20069;-92
2021/12/26 08:30:09;;;;;;;4.50;3.60;;;4.70;99.90;;;;;;5016984;28;20058;-91
2021/12/26 08:32:39;;;;;;;4.77;3.40;;;4.80;99.90;;;;;;5009440;28;20670;-92
2021/12/26 08:35:10;;;;;;;5.32;3.80;;;4.80;99.90;;;;;;5012258;28;20052;-93
2021/12/26 08:37:40;;;;;;;5.25;3.55;;;4.90;99.90;;;;;;5023243;28;20048;-92
2021/12/26 08:40:08;;;;;;;5.07;3.47;;;4.70;99.90;;;;;;5036747;28;20041;-92
2021/12/26 08:42:36;;;;;;;3.95;2.92;;;4.90;99.90;;;;;;5028680;28;20061;-92
2021/12/26 08:45:04;;;;;;;4.50;2.92;;;5.20;99.90;;;;;;5036506;28;20049;-92
2021/12/26 08:47:31;;;;;;;5.40;3.72;;;4.90;99.90;;;;;;5036428;28;20136;-92
2021/12/26 08:49:58;;;;;;;5.00;3.47;;;5.20;99.90;;;;;;5036501;28;20048;-91
2021/12/26 08:52:26;;;;;;;5.47;4.07;;;4.80;99.90;;;;;;5036542;28;20049;-91
2021/12/26 08:54:54;;;;;;;4.70;3.65;;;5.00;99.90;;;;;;5036508;28;20045;-92
2021/12/26 08:57:21;;;;;;;4.57;3.35;;;4.70;99.90;;;;;;5036272;28;20045;-92
2021/12/26 08:59:48;;;;;;;5.15;3.70;;;4.80;99.90;;;;;;5036508;28;20049;-90
2021/12/26 09:02:16;;;;;;;5.82;3.75;;;4.60;99.90;;;;;;5036485;28;20056;-91
2021/12/26 09:04:44;;;;;;;4.68;3.88;;;4.60;99.90;;;;;;5035924;28;20483;-92
2021/12/26 09:07:14;;;;;;;4.05;3.05;;;4.70;99.90;;;;;;5035699;28;20072;-92
2021/12/26 09:09:41;;;;;;;4.82;3.33;;;4.80;99.90;;;;;;5036722;28;20140;-92
2021/12/26 09:12:12;;;;;;;5.40;3.42;;;4.90;99.90;;;;;;5037010;28;20076;-91
2021/12/26 09:14:39;;;;;;;4.80;3.00;;;5.20;99.90;;;;;;5036344;28;20049;-91
2021/12/26 09:17:07;;;;;;;4.22;2.92;;;5.20;99.90;;;;;;5036143;28;20063;-91
2021/12/26 09:19:35;;;;;;;6.22;3.47;;;4.90;99.90;;;;;;5036322;28;20045;-92
2021/12/26 09:22:06;;;;;;;4.18;2.83;;;4.90;99.90;;;;;;5036321;28;20053;-92
2021/12/26 09:24:33;;;;;;;4.82;2.67;;;4.90;99.90;;;;;;5026090;28;20046;-92
2021/12/26 09:27:00;;;;;;;4.97;2.85;;;6.10;99.90;;;;;;5016329;28;20054;-92
2021/12/26 09:29:29;;;;;;;3.53;2.33;;;5.00;99.90;;;;;;5016402;28;20099;-92
2021/12/26 09:31:57;;;;;;;3.85;2.20;;;5.00;99.90;;;;;;5016283;28;20050;-92
2021/12/26 09:34:31;;;;;;;3.33;2.00;;;5.40;99.90;;;;;;5016872;28;20053;-91
2021/12/26 09:36:59;;;;;;;3.00;2.13;;;5.50;99.90;;;;;;5018902;28;20050;-91
2021/12/26 09:39:26;;;;;;;6.47;2.55;;;5.20;99.90;;;;;;5018980;28;20054;-92
2021/12/26 09:41:54;;;;;;;3.00;2.03;;;5.50;99.90;;;;;;5019614;28;20076;-92
2021/12/26 09:44:22;;;;;;;3.67;2.13;;;5.50;99.90;;;;;;5019623;28;20057;-90
2021/12/26 09:46:51;;;;;;;3.97;2.28;;;5.30;99.90;;;;;;5020200;28;20046;-91
2021/12/26 09:49:19;;;;;;;;;;;5.50;99.90;;;;;;5020186;28;20129;-92
2021/12/26 09:51:46;;;;;;;3.28;1.98;;;5.50;99.90;;;;;;5019756;28;19925;-91
2021/12/26 09:54:16;;;;;;;3.22;1.85;;;5.50;99.90;;;;;;5020424;28;20050;-91
2021/12/26 09:56:48;;;;;;;3.08;2.28;;;5.40;99.90;;;;;;5019912;28;20057;-92
2021/12/26 09:59:18;;;;;;;3.50;1.95;;;5.70;99.90;;;;;;5028023;28;20056;-92
2021/12/26 10:01:47;;;;;;;2.80;1.63;;;5.60;99.90;;;;;;5036985;28;20046;-92
2021/12/26 10:04:27;;;;;;;3.35;2.35;;;5.60;99.90;;;;;;5037279;28;20093;-91
2021/12/26 10:07:00;;;;;;;2.85;2.00;;;5.40;99.90;;;;;;5033640;28;20074;-91
2021/12/26 10:09:28;;;;;;;3.70;2.42;;;5.40;99.90;;;;;;5020221;28;20066;-92
2021/12/26 10:11:58;;;;;;;4.77;2.33;;;5.50;99.90;;;;;;5019394;28;20192;-92
2021/12/26 10:14:27;;;;;;;4.68;2.75;;;5.30;99.90;;;;;;5019162;28;20089;-92
2021/12/26 10:16:58;;;;;;;3.78;2.50;;;5.40;99.90;;;;;;5019873;28;20452;-92
2021/12/26 10:19:27;;;;;;;5.10;2.88;;;5.40;99.90;;;;;;5019835;28;20137;-92
2021/12/26 10:21:56;;;;;;;3.53;2.35;;;5.50;99.90;;;;;;5019498;28;20054;-91
2021/12/26 10:24:27;;;;;;;4.72;2.47;;;5.70;99.90;;;;;;5019607;28;20054;-92
2021/12/26 10:26:56;;;;;;;4.78;3.30;;;5.80;99.90;;;;;;5018391;28;20053;-92
2021/12/26 10:29:26;;;;;;;15.75;7.57;;;5.60;99.90;;;;;;5019178;28;20061;-93
2021/12/26 10:32:09;;;;;;;4.22;2.88;;;5.80;99.90;;;;;;5019596;28;20520;-92
2021/12/26 10:34:42;;;;;;;4.03;2.55;;;5.80;99.90;;;;;;5019014;28;20049;-92
2021/12/26 10:37:13;;;;;;;7.05;3.45;;;5.80;99.90;;;;;;5018880;28;20507;-92
2021/12/26 10:39:43;;;;;;;4.32;2.38;;;5.70;99.90;;;;;;5018591;28;20057;-92
2021/12/26 10:42:16;;;;;;;4.00;2.72;;;6.00;99.90;;;;;;5018591;28;20046;-92
2021/12/26 10:44:48;;;;;;;4.50;2.80;;;6.00;99.90;;;;;;5019008;28;20070;-92
2021/12/26 10:47:18;;;;;;;4.85;3.22;;;5.70;99.90;;;;;;5025488;28;20100;-91
2021/12/26 10:49:53;;;;;;;4.47;2.90;;;7.10;99.90;;;;;;5039158;28;20488;-92
2021/12/26 10:52:29;;;;;;;4.78;3.20;;;5.90;99.90;;;;;;5039180;28;20052;-92
2021/12/26 10:55:00;;;;;;;4.05;2.67;;;6.10;99.90;;;;;;5038419;28;20065;-92
2021/12/26 10:57:30;;;;;;;4.90;2.95;;;5.80;99.90;;;;;;5037632;28;20049;-92
2021/12/26 11:00:16;;;;;;;4.07;2.80;;;6.00;99.90;;;;;;5037799;28;20045;-93
2021/12/26 11:02:47;;;;;;;5.25;3.25;;;6.00;99.90;;;;;;5030497;28;20057;-91
2021/12/26 11:05:18;;;;;;;4.28;3.13;;;5.80;99.90;;;;;;5037632;28;20430;-92
2021/12/26 11:07:53;;;;;;;4.85;3.40;;;5.80;99.90;;;;;;5037321;28;20141;-91
2021/12/26 11:10:24;;;;;;;4.57;3.03;;;5.80;99.90;;;;;;5038078;28;20064;-93
2021/12/26 11:12:54;;;;;;;4.95;3.22;;;6.20;99.90;;;;;;5037429;28;20048;-91
2021/12/26 11:15:24;;;;;;;5.95;3.40;;;5.90;99.90;;;;;;5038078;28;20042;-90
2021/12/26 11:17:54;;;;;;;5.43;3.35;;;6.10;99.90;;;;;;5035989;28;20518;-90
2021/12/26 11:20:32;;;;;;;5.75;3.63;;;5.90;99.90;;;;;;5017766;28;20063;-92
2021/12/26 11:23:09;;;;;;;7.13;3.83;;;6.00;99.90;;;;;;5017782;28;20050;-92
2021/12/26 11:25:37;;;;;;;5.50;3.72;;;4.50;99.90;;;;;;5017617;28;20126;-92
2021/12/26 11:28:05;;;;;;;5.93;4.05;;;6.10;99.90;;;;;;5018734;28;20057;-92
2021/12/26 11:30:32;;;;;;;6.82;4.13;;;5.90;99.90;;;;;;5018393;28;20251;-92
2021/12/26 11:33:00;;;;;;;6.35;4.35;;;6.00;99.90;;;;;;5017677;28;20045;-92
2021/12/26 11:35:39;;;;;;;7.32;4.57;;;6.00;99.90;;;;;;5018364;28;20054;-91
2021/12/26 11:38:09;;;;;;;8.65;4.82;;;6.20;99.90;;;;;;5019684;28;20129;-90
2021/12/26 11:40:37;;;;;;;8.32;4.05;;;6.20;99.90;;;;;;5017230;28;20069;-92
2021/12/26 11:43:26;;;;;;;6.93;4.13;;;6.30;99.90;;;;;;5017920;28;20056;-91
2021/12/26 11:46:17;;;;;;;7.10;3.30;;;6.30;99.90;;;;;;5018807;28;20121;-92
2021/12/26 11:49:12;;;;;;;9.20;4.78;;;6.30;99.90;;;;;;5018281;28;20140;-91
2021/12/26 11:52:05;;;;;;;8.32;4.00;;;6.40;99.90;;;;;;5018226;28;20050;-92
2021/12/26 11:54:57;;;;;;;7.47;4.68;;;6.50;99.90;;;;;;5017574;28;20104;-92
2021/12/26 11:57:57;;;;;;;7.50;4.63;;;6.40;99.90;;;;;;5014476;28;20050;-92
2021/12/26 12:00:27;;;;;;;7.22;5.18;;;6.20;99.90;;;;;;5019104;28;20492;-92
2021/12/26 12:02:57;;;;;;;7.07;5.40;;;6.20;99.90;;;;;;5031561;28;20068;-91
2021/12/26 12:05:36;;;;;;;7.75;4.32;;;6.30;99.90;;;;;;5030258;28;20050;-91
2021/12/26 12:08:06;;;;;;;7.20;4.27;;;6.40;99.90;;;;;;5018730;28;20050;-91
2021/12/26 12:10:46;;;;;;;7.55;5.25;;;6.40;99.90;;;;;;5020622;28;20046;-91
2021/12/26 12:13:34;;;;;;;7.30;4.90;;;6.20;99.90;;;;;;5017405;28;20056;-93
2021/12/26 12:16:03;;;;;;;7.97;4.95;;;6.30;99.90;;;;;;5016653;28;20054;-93
2021/12/26 12:18:33;;;;;;;7.20;4.93;;;6.20;99.90;;;;;;5019091;28;20050;-93
2021/12/26 12:21:18;;;;;;;8.43;4.75;;;5.30;99.90;;;;;;5017725;28;20057;-92
2021/12/26 12:24:01;;;;;;;7.75;5.03;;;6.10;99.90;;;;;;5009608;28;20107;-93
2021/12/26 12:26:50;;;;;;;7.50;5.78;;;5.70;99.90;;;;;;5017238;28;20086;-92
2021/12/26 12:29:52;;;;;;;7.55;5.22;;;6.40;99.90;;;;;;5016908;28;20042;-90
2021/12/26 12:32:22;;;;;;;9.88;5.28;;;6.30;99.90;;;;;;5010335;28;20050;-92
2021/12/26 12:34:57;;;;;;;10.23;5.25;;;6.50;99.90;;;;;;5016423;28;20076;-92
2021/12/26 12:37:36;;;;;;;8.80;5.28;;;6.50;99.90;;;;;;5017270;28;20117;-91
2021/12/26 12:40:12;;;;;;;8.57;5.32;;;6.50;99.90;;;;;;5017070;28;20493;-93
2021/12/26 12:42:45;;;;;;;10.32;4.78;;;6.70;99.90;;;;;;5016781;28;20497;-92
2021/12/26 12:45:15;;;;;;;8.23;5.97;;;6.60;99.90;;;;;;5017098;28;20133;-91
2021/12/26 12:47:44;;;;;;;9.82;5.47;;;6.50;99.90;;;;;;5016935;28;20463;-92
2021/12/26 12:50:14;;;;;;;8.57;6.18;;;6.60;99.90;;;;;;5016735;28;20042;-91
2021/12/26 12:52:59;;;;;;;8.90;5.35;;;6.50;99.90;;;;;;5031722;28;20531;-92
2021/12/26 12:55:53;;;;;;;8.93;5.95;;;6.70;99.90;;;;;;5036640;28;20084;-92
2021/12/26 12:58:23;;;;;;;8.40;5.47;;;6.60;99.90;;;;;;5036665;28;20049;-92
2021/12/26 13:00:53;;;;;;;13.88;5.80;;;6.70;99.90;;;;;;5037928;28;20049;-92
2021/12/26 13:03:21;;;;;;;7.43;5.10;;;6.60;99.90;;;;;;5036786;28;20068;-92
2021/12/26 13:05:53;;;;;;;9.60;5.63;;;6.40;99.90;;;;;;5036342;28;20046;-92
2021/12/26 13:11:17;;;;;;;11.55;6.50;;;7.50;99.90;;;;;;5018323;28;20145;-90
2021/12/26 13:14:04;;;;;;;8.02;5.88;;;6.70;99.90;;;;;;5016865;28;20058;-92
2021/12/26 13:19:24;;;;;;;7.43;5.35;;;6.70;99.90;;;;;;5014964;28;20046;-93
2021/12/26 13:22:08;;;;;;;10.43;6.22;;;6.90;99.90;;;;;;5017092;28;20069;-93
2021/12/26 13:24:42;;;;;;;8.68;6.10;;;7.00;99.90;;;;;;5016607;28;20058;-92